Historical Weather Data

Soule Park Golf Course
1033 East Ojai Ave
Ojai, CA 93023
Date ET
(Inches)
Rain
(Inches)
Temp °F
Humidity
Avg
Wind MPH
Avg
Solar Wm2
Avg
High Ave Low
7/1/17 0.20 0.00 80.9 64.9 52.1 77 2.4 322
7/2/17 0.22 0.00 84.4 67.5 54.7 73 2.7 335
7/3/17 0.25 0.00 93.0 69.8 50.4 61 2.4 364
7/4/17 0.26 0.00 96.4 73.5 52.9 50 2.4 353
7/5/17 0.25 0.00 92.3 75.8 58.4 51 2.6 339
7/6/17 0.26 0.00 98.9 78.1 58.4 55 2.3 338
7/7/17 0.28 0.00 104.5 83.8 63.5 48 2.7 340
7/8/17 0.29 0.00 105.9 84.3 64.3 45 2.9 341
7/9/17 0.25 0.00 98.4 82.0 68.1 49 2.9 306
7/10/17 0.22 0.00 94.8 79.6 68.1 50 2.5 280
7/11/17 0.24 0.00 91.8 75.9 60.5 58 2.6 325
7/12/17 0.22 0.00 88.1 73.3 60.0 66 2.7 311
7/13/17 0.24 0.00 91.5 73.1 58.3 65 2.9 328
7/14/17 0.24 0.00 90.8 73.3 57.7 64 2.5 329
7/15/17 0.25 0.00 96.2 76.4 58.9 58 2.6 327
7/16/17 0.24 0.00 92.6 76.9 62.8 61 2.7 320
7/17/17 0.23 0.00 90.1 74.3 60.1 69 2.6 320
7/18/17 0.24 0.00 89.9 74.1 59.3 66 2.8 326
7/19/17 0.24 0.00 92.5 74.3 57.4 60 2.7 323
7/20/17 0.25 0.00 90.2 73.4 55.9 59 2.8 339
7/21/17 0.25 0.00 88.2 72.2 54.9 62 2.9 348
7/22/17 0.26 0.00 95.2 74.4 54.8 57 2.6 351
7/23/17 0.25 0.00 91.5 73.5 57.1 62 2.8 334
7/24/17 0.19 0.00 89.4 71.9 59.3 66 2.7 271
7/25/17 0.24 0.00 87.0 72.6 60.2 66 3.1 333
7/26/17 0.25 0.00 92.6 74.8 59.5 62 2.8 338
7/27/17 0.26 0.00 94.5 76.1 58.3 61 2.8 341
7/28/17 0.25 0.00 92.7 72.9 56.9 68 2.8 345
7/29/17 0.24 0.00 93.3 73.6 60.8 68 3.2 331
7/30/17 0.23 0.00 89.7 70.8 59.6 73 2.9 331
7/31/17 0.24 0.00 94.4 72.9 55.2 66 2.4 333